createdAt,value
2022-09-06T00:00:31.924Z,24.50
2022-09-06T00:03:01.137Z,24.17
2022-09-06T00:05:30.803Z,24.47
2022-09-06T00:08:00.339Z,24.62
2022-09-06T00:10:29.365Z,24.62
2022-09-06T00:13:00.943Z,24.67
2022-09-06T00:15:31.003Z,24.32
2022-09-06T00:18:04.114Z,24.61
2022-09-06T00:20:34.624Z,24.73
2022-09-06T00:23:04.723Z,24.06
2022-09-06T00:25:33.742Z,23.53
2022-09-06T00:28:04.841Z,23.71
2022-09-06T00:30:35.099Z,24.02
2022-09-06T00:33:03.539Z,24.40
2022-09-06T00:35:31.954Z,24.58
2022-09-06T00:38:01.669Z,23.57
2022-09-06T00:40:31.562Z,23.10
2022-09-06T00:43:00.044Z,23.79
2022-09-06T00:45:30.618Z,23.88
2022-09-06T00:48:03.135Z,23.91
2022-09-06T00:50:31.785Z,23.96
2022-09-06T00:53:00.874Z,23.66
2022-09-06T00:55:29.601Z,24.07
2022-09-06T00:57:58.422Z,24.02
2022-09-06T01:00:27.055Z,23.08
2022-09-06T01:02:55.801Z,22.68
2022-09-06T01:05:44.945Z,22.50
2022-09-06T01:08:22.729Z,23.38
2022-09-06T01:11:15.243Z,23.86
2022-09-06T01:13:53.164Z,23.68
2022-09-06T01:16:31.627Z,23.56
2022-09-06T01:19:31.594Z,23.65
2022-09-06T01:22:15.507Z,23.42
2022-09-06T01:25:03.493Z,22.85
2022-09-06T01:28:01.235Z,23.38
2022-09-06T01:30:31.594Z,23.78
2022-09-06T01:33:10.503Z,23.60
2022-09-06T01:35:45.450Z,23.67
2022-09-06T01:38:15.489Z,24.03
2022-09-06T01:40:44.229Z,23.61
2022-09-06T01:43:19.895Z,23.88
2022-09-06T01:45:59.387Z,23.86
2022-09-06T01:48:38.775Z,23.87
2022-09-06T01:51:16.155Z,23.85
2022-09-06T01:54:01.058Z,23.91
2022-09-06T01:56:40.428Z,24.03
2022-09-06T01:59:33.731Z,23.65
2022-09-06T02:02:07.356Z,23.25
2022-09-06T02:04:43.751Z,23.74
2022-09-06T02:07:17.903Z,23.98
2022-09-06T02:09:50.592Z,24.07
2022-09-06T02:12:22.106Z,24.04
2022-09-06T02:14:56.631Z,23.76
2022-09-06T02:17:31.499Z,23.06
2022-09-06T02:20:04.336Z,23.57
2022-09-06T02:22:37.708Z,23.86
2022-09-06T02:25:11.965Z,23.93
2022-09-06T02:27:41.083Z,23.63
2022-09-06T02:30:12.311Z,23.78
2022-09-06T02:32:49.129Z,23.47
2022-09-06T02:35:18.831Z,22.12
2022-09-06T02:37:47.580Z,22.73
2022-09-06T02:40:16.271Z,23.27
2022-09-06T02:42:45.015Z,23.33
2022-09-06T02:45:15.353Z,23.40
2022-09-06T02:47:44.110Z,23.43
2022-09-06T02:50:13.302Z,23.54
2022-09-06T02:52:41.913Z,23.59
2022-09-06T02:55:11.285Z,23.62
2022-09-06T02:57:39.836Z,23.59
2022-09-06T03:00:09.328Z,23.64
2022-09-06T03:02:39.305Z,23.58
2022-09-06T03:05:08.761Z,23.28
2022-09-06T03:07:37.307Z,23.24
2022-09-06T03:10:06.479Z,22.86
2022-09-06T03:12:35.046Z,23.08
2022-09-06T03:15:03.682Z,23.08
2022-09-06T03:17:32.358Z,22.70
2022-09-06T03:20:02.337Z,22.40
2022-09-06T03:22:31.147Z,22.77
2022-09-06T03:24:59.753Z,21.51
2022-09-06T03:27:28.434Z,22.16
2022-09-06T03:29:56.975Z,21.89
2022-09-06T03:32:25.968Z,21.53
2022-09-06T03:34:54.537Z,20.85
2022-09-06T03:37:24.579Z,21.84
2022-09-06T03:39:53.234Z,22.51
2022-09-06T03:42:22.417Z,22.80
2022-09-06T03:44:50.953Z,22.96
2022-09-06T03:47:19.843Z,22.96
2022-09-06T03:49:48.677Z,22.61
2022-09-06T03:52:17.418Z,22.80
2022-09-06T03:54:47.304Z,23.00
2022-09-06T03:57:15.891Z,23.02
2022-09-06T03:59:44.452Z,22.99
2022-09-06T04:02:13.193Z,22.95
2022-09-06T04:04:41.779Z,23.08
2022-09-06T04:07:10.424Z,23.00
2022-09-06T04:09:38.994Z,22.94
2022-09-06T04:12:09.242Z,22.04
2022-09-06T04:14:37.796Z,20.77
2022-09-06T04:17:06.567Z,21.41
2022-09-06T04:19:35.140Z,21.66
2022-09-06T04:22:03.745Z,21.59
2022-09-06T04:24:32.294Z,21.70
2022-09-06T04:27:00.938Z,21.22
2022-09-06T04:29:30.906Z,20.01
2022-09-06T04:31:59.259Z,20.78
2022-09-06T04:34:27.613Z,21.63
2022-09-06T04:36:56.142Z,22.22
2022-09-06T04:39:24.651Z,22.44
2022-09-06T04:41:53.025Z,21.81
2022-09-06T04:44:21.331Z,21.73
2022-09-06T04:46:51.012Z,21.77
2022-09-06T04:49:19.300Z,22.16
2022-09-06T04:51:47.619Z,21.96
2022-09-06T04:54:15.860Z,21.96
2022-09-06T04:56:44.150Z,21.80
2022-09-06T04:59:12.427Z,21.74
2022-09-06T05:01:40.725Z,21.49
2022-09-06T05:04:10.354Z,21.01
2022-09-06T05:06:39.353Z,20.75
2022-09-06T05:09:07.648Z,20.87
2022-09-06T05:11:36.254Z,21.00
2022-09-06T05:14:04.850Z,21.07
2022-09-06T05:16:33.226Z,21.30
2022-09-06T05:19:01.568Z,21.14
2022-09-06T05:21:31.258Z,21.24
2022-09-06T05:23:59.525Z,21.45
2022-09-06T05:26:27.819Z,20.91
2022-09-06T05:28:56.090Z,21.13
2022-09-06T05:31:29.567Z,20.87
2022-09-06T05:33:59.392Z,21.00
2022-09-06T05:36:30.647Z,21.41
2022-09-06T05:39:00.299Z,20.84
2022-09-06T05:41:28.992Z,21.21
2022-09-06T05:43:57.298Z,21.15
2022-09-06T05:46:26.578Z,22.38
2022-09-06T05:48:56.105Z,23.38
2022-09-06T05:51:24.678Z,22.82
2022-09-06T05:53:54.532Z,22.73
2022-09-06T05:56:23.208Z,23.27
2022-09-06T05:58:51.583Z,24.33
2022-09-06T06:01:22.732Z,24.88
2022-09-06T06:03:57.096Z,24.87
2022-09-06T06:06:27.480Z,24.27
2022-09-06T06:08:57.460Z,25.06
2022-09-06T06:11:26.992Z,23.79
2022-09-06T06:13:55.765Z,24.55
2022-09-06T06:16:25.503Z,23.36
2022-09-06T06:18:53.845Z,23.87
2022-09-06T06:21:24.603Z,24.15
2022-09-06T06:23:56.903Z,24.81
2022-09-06T06:26:26.375Z,24.46
2022-09-06T06:28:55.580Z,25.08
2022-09-06T06:31:24.101Z,24.36
2022-09-06T06:33:53.049Z,25.50
2022-09-06T06:36:23.476Z,25.54
2022-09-06T06:38:55.312Z,24.87
2022-09-06T06:41:27.244Z,23.80
2022-09-06T06:43:56.569Z,22.69
2022-09-06T06:46:27.477Z,22.94
2022-09-06T06:48:56.510Z,24.28
2022-09-06T06:51:28.348Z,24.14
2022-09-06T06:53:57.891Z,24.27
2022-09-06T06:56:30.302Z,23.89
2022-09-06T06:59:00.924Z,24.10
2022-09-06T07:01:33.523Z,25.46
2022-09-06T07:04:02.794Z,24.63
2022-09-06T07:09:21.487Z,24.43
2022-09-06T07:11:51.708Z,24.31
2022-09-06T07:14:20.332Z,24.82
2022-09-06T07:16:49.413Z,24.51
2022-09-06T07:22:09.372Z,24.86
2022-09-06T07:24:39.532Z,25.49
2022-09-06T07:29:58.095Z,26.76
2022-09-06T07:32:26.795Z,27.08
2022-09-06T07:34:55.339Z,25.85
2022-09-06T07:37:23.937Z,25.42
2022-09-06T07:39:52.597Z,25.59
2022-09-06T07:42:22.568Z,25.10
2022-09-06T07:44:51.167Z,26.36
2022-09-06T07:55:33.046Z,25.95
2022-09-06T07:58:03.102Z,26.16
2022-09-06T08:00:31.751Z,26.08
2022-09-06T08:03:00.405Z,26.30
2022-09-06T08:11:07.616Z,27.00
2022-09-06T08:13:38.352Z,27.58
2022-09-06T08:16:08.817Z,27.56
2022-09-06T08:18:38.224Z,27.59
2022-09-06T08:21:12.722Z,26.94
2022-09-06T08:23:43.756Z,27.15
2022-09-06T08:26:12.539Z,26.90
2022-09-06T08:28:42.615Z,27.27
2022-09-06T08:31:12.949Z,26.65
2022-09-06T08:33:42.604Z,27.50
2022-09-06T08:36:12.483Z,26.47
2022-09-06T08:38:41.280Z,26.95
2022-09-06T08:41:13.311Z,26.34
2022-09-06T08:46:43.291Z,26.98
2022-09-06T08:49:12.670Z,26.75
2022-09-06T08:52:12.112Z,27.61
2022-09-06T08:54:47.731Z,27.14
2022-09-06T08:57:28.323Z,27.69
2022-09-06T09:00:03.727Z,27.11
2022-09-06T09:02:43.860Z,27.41
2022-09-06T09:05:22.067Z,28.15
2022-09-06T09:08:03.153Z,29.01
2022-09-06T09:10:37.507Z,29.06
2022-09-06T09:13:08.615Z,29.16
2022-09-06T09:15:40.580Z,29.28
2022-09-06T09:18:09.545Z,29.09
2022-09-06T09:20:39.884Z,28.19
2022-09-06T09:23:08.455Z,28.45
2022-09-06T09:25:40.338Z,28.41
2022-09-06T09:28:18.563Z,28.26
2022-09-06T09:30:51.086Z,28.93
2022-09-06T09:33:36.790Z,28.42
2022-09-06T09:36:10.991Z,28.94
2022-09-06T09:38:44.297Z,29.23
2022-09-06T09:41:26.012Z,29.10
2022-09-06T09:44:03.817Z,29.24
2022-09-06T09:46:36.734Z,28.51
2022-09-06T09:49:09.587Z,28.12
2022-09-06T09:51:40.405Z,27.22
2022-09-06T09:54:10.740Z,28.33
2022-09-06T09:56:44.683Z,29.00
2022-09-06T09:59:26.408Z,29.08
2022-09-06T10:02:00.115Z,28.43
2022-09-06T10:07:13.148Z,28.87
2022-09-06T10:09:43.864Z,29.01
2022-09-06T10:12:19.491Z,29.64
2022-09-06T10:14:50.279Z,28.98
2022-09-06T10:17:32.032Z,29.17
2022-09-06T10:20:05.242Z,29.90
2022-09-06T10:22:39.991Z,28.89
2022-09-06T10:25:37.718Z,29.18
2022-09-06T10:28:29.238Z,29.79
2022-09-06T10:31:34.374Z,30.49
2022-09-06T10:34:31.521Z,29.77
2022-09-06T10:37:16.980Z,29.82
2022-09-06T10:39:56.068Z,29.59
2022-09-06T10:42:34.854Z,29.48
2022-09-06T10:45:21.627Z,29.30
2022-09-06T10:48:05.567Z,29.36
2022-09-06T10:50:46.884Z,29.34
2022-09-06T10:53:24.111Z,29.87
2022-09-06T10:56:02.507Z,28.69
2022-09-06T11:01:32.485Z,29.60
2022-09-06T11:04:06.834Z,29.40
2022-09-06T11:06:46.582Z,29.71
2022-09-06T11:09:23.906Z,29.55
2022-09-06T11:11:59.042Z,30.12
2022-09-06T11:14:30.072Z,29.98
2022-09-06T11:17:04.999Z,30.10
2022-09-06T11:19:39.449Z,29.99
2022-09-06T11:22:44.805Z,29.29
2022-09-06T11:25:54.481Z,29.43
2022-09-06T11:28:31.010Z,30.09
2022-09-06T11:31:00.226Z,30.13
2022-09-06T11:33:31.501Z,29.75
2022-09-06T11:36:19.035Z,30.00
2022-09-06T11:38:57.960Z,30.25
2022-09-06T11:41:31.368Z,30.21
2022-09-06T11:44:00.135Z,30.39
2022-09-06T11:47:00.598Z,29.11
2022-09-06T11:49:44.032Z,29.29
2022-09-06T11:52:59.377Z,29.43
2022-09-06T11:55:38.855Z,30.24
2022-09-06T11:58:20.249Z,29.06
2022-09-06T12:01:27.463Z,29.64
2022-09-06T12:04:04.319Z,29.61
2022-09-06T12:06:37.940Z,30.13
2022-09-06T12:09:28.801Z,30.13
2022-09-06T12:11:59.888Z,30.13
2022-09-06T12:14:34.411Z,30.14
2022-09-06T12:17:27.709Z,29.16
2022-09-06T12:20:05.512Z,29.24
2022-09-06T12:22:55.627Z,29.75
2022-09-06T12:25:58.674Z,29.94
2022-09-06T12:28:51.540Z,30.30
2022-09-06T12:31:39.741Z,30.03
2022-09-06T12:34:12.638Z,29.05
2022-09-06T12:36:51.967Z,29.43
2022-09-06T12:39:22.222Z,29.75
2022-09-06T12:41:55.092Z,29.57
2022-09-06T12:44:33.618Z,29.88
2022-09-06T12:47:12.273Z,30.11
2022-09-06T12:49:40.823Z,29.91
2022-09-06T12:52:12.180Z,29.55
2022-09-06T12:54:46.747Z,30.09
2022-09-06T12:57:19.584Z,30.14
2022-09-06T12:59:57.744Z,30.28
2022-09-06T13:02:33.613Z,30.73
2022-09-06T13:05:06.498Z,30.20
2022-09-06T13:07:38.592Z,29.94
2022-09-06T13:10:07.525Z,30.22
2022-09-06T13:12:39.121Z,30.66
2022-09-06T13:15:12.907Z,30.73
2022-09-06T13:17:41.682Z,31.43
2022-09-06T13:20:15.552Z,30.92
2022-09-06T13:22:46.576Z,30.84
2022-09-06T13:25:20.691Z,30.84
2022-09-06T13:27:51.638Z,30.90
2022-09-06T13:30:41.963Z,31.18
2022-09-06T13:33:24.475Z,31.09
2022-09-06T13:36:05.874Z,30.88
2022-09-06T13:38:39.697Z,30.07
2022-09-06T13:41:28.966Z,30.37
2022-09-06T13:44:03.297Z,30.93
2022-09-06T13:46:33.321Z,31.06
2022-09-06T13:49:01.992Z,30.72
2022-09-06T13:51:30.776Z,30.58
2022-09-06T13:54:07.707Z,30.59
2022-09-06T13:56:36.553Z,30.70
2022-09-06T13:59:07.031Z,30.75
2022-09-06T14:01:35.676Z,30.94
2022-09-06T14:04:05.210Z,31.08
2022-09-06T14:06:36.977Z,30.89
2022-09-06T14:09:07.630Z,31.09
2022-09-06T14:11:37.244Z,31.38
2022-09-06T14:14:07.574Z,31.00
2022-09-06T14:16:36.157Z,31.10
2022-09-06T14:19:05.191Z,31.38
2022-09-06T14:21:33.908Z,31.04
2022-09-06T14:24:04.567Z,30.98
2022-09-06T14:26:34.031Z,31.05
2022-09-06T14:29:02.844Z,30.76
2022-09-06T14:31:33.565Z,30.31
2022-09-06T14:34:04.174Z,30.67
2022-09-06T14:36:34.599Z,30.53
2022-09-06T14:39:03.517Z,30.51
2022-09-06T14:41:32.271Z,30.79
2022-09-06T14:44:01.631Z,30.97
2022-09-06T14:46:32.010Z,31.24
2022-09-06T14:49:02.660Z,30.98
2022-09-06T14:51:31.779Z,31.16
2022-09-06T14:54:03.238Z,30.83
2022-09-06T14:56:31.835Z,30.68
2022-09-06T14:59:00.676Z,30.90
2022-09-06T15:01:35.757Z,30.82
2022-09-06T15:04:10.352Z,30.73
2022-09-06T15:06:41.133Z,31.02
2022-09-06T15:09:11.492Z,31.03
2022-09-06T15:11:43.151Z,30.96
2022-09-06T15:14:16.856Z,30.88
2022-09-06T15:16:46.162Z,31.12
2022-09-06T15:19:16.544Z,30.94
2022-09-06T15:21:46.855Z,30.67
2022-09-06T15:24:16.187Z,30.81
2022-09-06T15:26:45.159Z,30.54
2022-09-06T15:29:15.065Z,30.58
2022-09-06T15:31:50.168Z,30.67
2022-09-06T15:34:21.398Z,30.92
2022-09-06T15:36:50.645Z,30.87
2022-09-06T15:39:19.967Z,31.03
2022-09-06T15:41:51.586Z,30.82
2022-09-06T15:44:21.487Z,30.65
2022-09-06T15:46:52.057Z,30.19
2022-09-06T15:49:27.881Z,29.80
2022-09-06T15:51:58.193Z,30.26
2022-09-06T15:54:40.741Z,30.25
2022-09-06T15:57:09.340Z,30.15
2022-09-06T15:59:38.133Z,30.06
2022-09-06T16:02:06.840Z,30.20
2022-09-06T16:04:36.835Z,29.82
2022-09-06T16:07:05.668Z,29.75
2022-09-06T16:09:34.363Z,29.86
2022-09-06T16:12:02.985Z,29.93
2022-09-06T16:14:31.569Z,30.02
2022-09-06T16:17:00.230Z,30.04
2022-09-06T16:19:28.966Z,30.23
2022-09-06T16:21:59.537Z,30.32
2022-09-06T16:24:28.224Z,30.18
2022-09-06T16:26:56.857Z,30.10
2022-09-06T16:29:25.663Z,30.09
2022-09-06T16:31:59.608Z,30.14
2022-09-06T16:34:28.673Z,30.10
2022-09-06T16:36:58.611Z,29.90
2022-09-06T16:39:27.270Z,30.06
2022-09-06T16:41:55.868Z,29.92
2022-09-06T16:44:24.672Z,29.93
2022-09-06T16:46:53.761Z,29.98
2022-09-06T16:49:22.757Z,29.89
2022-09-06T16:51:52.300Z,29.87
2022-09-06T16:54:22.624Z,29.92
2022-09-06T16:56:51.179Z,29.84
2022-09-06T16:59:21.716Z,29.71
2022-09-06T17:01:51.593Z,29.82
2022-09-06T17:04:20.332Z,29.78
2022-09-06T17:06:49.164Z,29.72
2022-09-06T17:09:20.128Z,29.63
2022-09-06T17:11:50.590Z,29.56
2022-09-06T17:14:19.852Z,29.55
2022-09-06T17:17:05.248Z,29.51
2022-09-06T17:19:37.673Z,29.43
2022-09-06T17:22:06.760Z,29.39
2022-09-06T17:24:35.769Z,29.34
2022-09-06T17:27:06.434Z,29.30
2022-09-06T17:29:35.159Z,29.24
2022-09-06T17:32:09.896Z,29.22
2022-09-06T17:34:39.211Z,29.18
2022-09-06T17:37:07.886Z,29.19
2022-09-06T17:39:36.780Z,29.14
2022-09-06T17:42:07.549Z,29.14
2022-09-06T17:44:36.134Z,29.12
2022-09-06T17:47:13.662Z,29.09
2022-09-06T17:49:42.852Z,29.08
2022-09-06T17:52:11.973Z,29.03
2022-09-06T17:54:40.571Z,28.99
2022-09-06T17:57:10.501Z,28.92
2022-09-06T17:59:39.551Z,28.88
2022-09-06T18:02:08.428Z,28.82
2022-09-06T18:04:37.215Z,28.84
2022-09-06T18:07:05.947Z,28.79
2022-09-06T18:09:34.615Z,28.80
2022-09-06T18:12:03.413Z,28.74
2022-09-06T18:14:33.414Z,28.71
2022-09-06T18:17:02.039Z,28.63
2022-09-06T18:19:31.137Z,28.62
2022-09-06T18:21:59.687Z,28.59
2022-09-06T18:24:28.632Z,28.55
2022-09-06T18:26:57.172Z,28.51
2022-09-06T18:29:25.795Z,28.47
2022-09-06T18:31:57.255Z,28.48
2022-09-06T18:34:25.933Z,28.42
2022-09-06T18:36:54.479Z,28.36
2022-09-06T18:39:23.143Z,28.31
2022-09-06T18:42:01.029Z,28.25
2022-09-06T18:44:32.267Z,28.22
2022-09-06T18:47:05.627Z,28.17
2022-09-06T18:49:35.301Z,28.16
2022-09-06T18:52:04.934Z,28.13
2022-09-06T18:54:34.800Z,28.09
2022-09-06T18:57:03.390Z,28.07
2022-09-06T18:59:32.135Z,28.03
2022-09-06T19:02:02.184Z,28.00
2022-09-06T19:04:31.076Z,27.95
2022-09-06T19:07:02.005Z,27.88
2022-09-06T19:09:30.593Z,27.85
2022-09-06T19:11:59.154Z,27.79
2022-09-06T19:14:27.776Z,27.75
2022-09-06T19:16:56.332Z,27.68
2022-09-06T19:19:26.450Z,27.63
2022-09-06T19:21:55.071Z,27.64
2022-09-06T19:24:24.630Z,27.64
2022-09-06T19:26:55.234Z,27.59
2022-09-06T19:29:23.935Z,27.59
2022-09-06T19:31:53.033Z,27.55
2022-09-06T19:34:22.076Z,27.56
2022-09-06T19:36:55.253Z,27.52
2022-09-06T19:39:31.126Z,27.30
2022-09-06T19:42:02.291Z,27.30
2022-09-06T19:44:30.893Z,27.33
2022-09-06T19:46:59.998Z,27.32
2022-09-06T19:49:30.339Z,27.29
2022-09-06T19:52:00.245Z,27.25
2022-09-06T19:54:29.223Z,27.21
2022-09-06T19:56:57.983Z,27.13
2022-09-06T19:59:26.654Z,27.08
2022-09-06T20:01:55.259Z,27.08
2022-09-06T20:04:23.994Z,26.98
2022-09-06T20:06:52.567Z,26.96
2022-09-06T20:09:22.633Z,26.94
2022-09-06T20:11:51.384Z,26.93
2022-09-06T20:14:20.057Z,26.93
2022-09-06T20:16:48.696Z,26.92
2022-09-06T20:19:17.589Z,26.89
2022-09-06T20:21:46.182Z,26.80
2022-09-06T20:24:15.619Z,26.51
2022-09-06T20:26:45.530Z,25.24
2022-09-06T20:29:14.130Z,24.82
2022-09-06T20:31:42.939Z,25.50
2022-09-06T20:34:15.942Z,26.13
2022-09-06T20:36:44.536Z,26.01
2022-09-06T20:39:13.138Z,26.25
2022-09-06T20:41:41.717Z,26.44
2022-09-06T20:44:11.674Z,26.55
2022-09-06T20:46:40.274Z,26.64
2022-09-06T20:49:09.325Z,26.26
2022-09-06T20:51:40.338Z,26.27
2022-09-06T20:54:09.210Z,26.33
2022-09-06T20:56:40.139Z,26.23
2022-09-06T20:59:11.994Z,26.17
2022-09-06T21:01:43.020Z,24.83
2022-09-06T21:04:12.838Z,25.13
2022-09-06T21:06:42.314Z,25.25
2022-09-06T21:09:12.989Z,25.22
2022-09-06T21:11:41.916Z,25.18
2022-09-06T21:14:12.597Z,24.80
2022-09-06T21:16:41.950Z,24.63
2022-09-06T21:19:12.233Z,24.38
2022-09-06T21:21:41.190Z,24.35
2022-09-06T21:24:11.092Z,24.14
2022-09-06T21:26:40.954Z,24.09
2022-09-06T21:29:11.519Z,24.31
2022-09-06T21:31:40.180Z,23.98
2022-09-06T21:34:15.574Z,24.49
2022-09-06T21:36:45.401Z,24.74
2022-09-06T21:39:14.288Z,24.58
2022-09-06T21:41:44.469Z,24.28
2022-09-06T21:44:14.886Z,24.27
2022-09-06T21:46:43.580Z,24.37
2022-09-06T21:49:14.209Z,24.42
2022-09-06T21:51:43.569Z,24.44
2022-09-06T21:54:12.294Z,24.33
2022-09-06T21:56:41.413Z,24.27
2022-09-06T21:59:10.957Z,24.25
2022-09-06T22:01:44.915Z,24.28
2022-09-06T22:04:14.025Z,24.28
2022-09-06T22:06:42.605Z,24.29
2022-09-06T22:09:13.166Z,24.36
2022-09-06T22:11:43.946Z,24.25
2022-09-06T22:14:14.055Z,24.44
2022-09-06T22:16:44.507Z,24.15
2022-09-06T22:19:13.584Z,24.13
2022-09-06T22:21:42.143Z,24.15
2022-09-06T22:24:12.654Z,24.42
2022-09-06T22:26:42.375Z,24.06
2022-09-06T22:29:13.535Z,24.51
2022-09-06T22:31:44.039Z,24.29
2022-09-06T22:34:12.695Z,24.07
2022-09-06T22:36:41.779Z,23.90
2022-09-06T22:39:10.836Z,24.04
2022-09-06T22:41:39.518Z,24.07
2022-09-06T22:44:08.355Z,24.37
2022-09-06T22:46:38.333Z,24.12
2022-09-06T22:49:08.413Z,23.74
2022-09-06T22:51:36.971Z,24.07
2022-09-06T22:54:06.710Z,24.01
2022-09-06T22:56:35.750Z,24.40
2022-09-06T22:59:04.672Z,24.12
2022-09-06T23:01:38.769Z,23.82
2022-09-06T23:04:09.489Z,24.11
2022-09-06T23:06:38.516Z,23.66
2022-09-06T23:09:07.366Z,23.85
2022-09-06T23:11:35.983Z,24.06
2022-09-06T23:14:05.033Z,24.26
2022-09-06T23:16:33.798Z,24.55
2022-09-06T23:19:02.447Z,24.05
2022-09-06T23:21:32.903Z,23.88
2022-09-06T23:24:01.493Z,24.70
2022-09-06T23:26:31.757Z,24.06
2022-09-06T23:29:00.439Z,23.89
2022-09-06T23:31:32.509Z,22.08
2022-09-06T23:34:02.458Z,21.68
2022-09-06T23:36:32.668Z,21.41
2022-09-06T23:39:02.431Z,21.02
2022-09-06T23:41:31.159Z,20.50
2022-09-06T23:43:59.822Z,20.86
2022-09-06T23:46:28.697Z,21.94
2022-09-06T23:48:57.344Z,21.06
2022-09-06T23:51:25.684Z,20.76
2022-09-06T23:53:55.714Z,19.97
2022-09-06T23:56:24.373Z,20.72
2022-09-06T23:58:52.983Z,20.98
